• Join FlightAware (Why Join?)
  • Login
  • US Flag 
Trick or treat! (Boo!!) 
01:04AM EDT


 

Airport Tracker/Info


-or-


 

Live Flight TrackerFlight Track Log ✈ ACA620 ✈ 23-Apr-2013 ✈ CYYZ - CYHZ

Flight Track Log - Related Links

Times and Time Zones

All times are in EDT time to prevent confusion due to time zone crossing. See the ACA620 flight status page for this flight to view local times or setup timezone preferences in your user account.

Time Position Orientation Groundspeed Altitude Reporting Facility
EDT Latitude Longitude Course Direction KTS MPH feet Rate Location/Type
07:29PM 43.7167 -79.5167 79° East 240 276 3,500  Level Toronto Center
07:30PM 43.7500 -79.4333 61° Northeast 280 322 6,900 2,640 Climbing Toronto Center
07:31PM 43.7929 -79.1308 72° East  Level FlightAware Approximate
07:32PM 43.8308 -78.9698 73° East  Level FlightAware Approximate
07:33PM 43.8695 -78.8056 71° East  Level FlightAware Approximate
07:34PM 43.8908 -78.6474 79° East  Level Estimated
07:35PM 43.7230 -78.6130 61° Northeast 435 501 21,000  Level FlightAware
07:36PM 43.7540 -78.5120 67° East 433 498 21,000  Level FlightAware
07:37PM 43.7890 -78.3950 67° East 433 498 21,000  Level FlightAware
07:37PM 43.8190 -78.2980 67° East 433 498 21,000  Level FlightAware
07:38PM 43.8510 -78.1930 67° East 435 501 21,000  Level FlightAware
07:39PM 43.8830 -78.0890 67° East 436 502 21,000  Level FlightAware
07:40PM 43.9180 -77.9720 67° East 440 506 21,000  Level FlightAware
07:40PM 43.9530 -77.8540 68° East 449 517 21,000  Level FlightAware
07:41PM 43.9850 -77.7470 67° East 446 513 21,000  Level FlightAware
07:42PM 44.0160 -77.6410 68° East 448 516 21,000  Level FlightAware
07:42PM 44.0470 -77.5390 67° East 453 521 21,000  Level FlightAware
07:43PM 44.0840 -77.4120 68° East 451 519 21,000  Level FlightAware
07:44PM 44.1220 -77.2960 65° Northeast 455 524 21,000  Level FlightAware
07:44PM 44.1540 -77.2010 65° Northeast 453 521 21,000  Level FlightAware
07:45PM 44.1930 -77.0850 65° Northeast 454 522 21,000  Level FlightAware
07:46PM 44.2340 -76.9600 65° Northeast 452 520 21,000  Level FlightAware
07:47PM 44.2670 -76.8550 66° East 440 506 21,000  Level FlightAware
07:47PM 44.3010 -76.7520 65° Northeast 438 504 21,000  Level FlightAware
07:48PM 44.3380 -76.6360 66° East 440 506 21,000  Level FlightAware
07:49PM 44.3720 -76.5320 65° Northeast 440 506 21,000  Level FlightAware
07:49PM 44.4090 -76.4160 66° East 440 506 21,000  Level FlightAware
07:50PM 44.4420 -76.3120 66° East 441 507 21,000  Level FlightAware
07:51PM 44.4750 -76.2080 66° East 439 505 21,000  Level FlightAware
07:51PM 44.5120 -76.0900 66° East 439 505 21,000  Level FlightAware
07:52PM 44.5450 -75.9840 66° East 453 521 21,000  Level FlightAware
07:53PM 44.5790 -75.8750 66° East 454 522 21,000  Level FlightAware
07:54PM 44.6170 -75.7540 66° East 455 524 21,000  Level FlightAware
07:54PM 44.6490 -75.6510 66° East 452 520 21,000  Level FlightAware
07:55PM 44.6840 -75.5230 69° East 447 514 21,000  Level FlightAware
07:56PM 44.7120 -75.4200 69° East 447 514 21,000  Level FlightAware
07:56PM 44.7370 -75.3270 69° East 449 517 21,000  Level FlightAware
07:57PM 44.7790 -75.1720 69° East 449 517 21,000  Level FlightAware
07:58PM 44.8080 -75.0640 69° East 450 518 21,000  Level FlightAware
07:58PM 44.8400 -74.9420 70° East 449 517 21,000  Level FlightAware
07:59PM 44.8700 -74.8310 69° East 450 518 21,000  Level FlightAware
08:00PM 44.8970 -74.7270 70° East 449 517 21,000  Level FlightAware
08:01PM 44.9270 -74.6130 70° East 450 518 21,000  Level FlightAware
08:01PM 44.9590 -74.4920 69° East 451 519 21,000  Level FlightAware
08:02PM 44.9890 -74.3750 70° East 451 519 21,000  Level FlightAware
08:03PM 45.0140 -74.2550 74° East 449 517 21,000  Level FlightAware
08:03PM 45.0350 -74.1410 75° East 447 514 21,000  Level FlightAware
08:04PM 45.0570 -74.0200 76° East 446 513 21,000  Level FlightAware
08:05PM 45.0770 -73.9030 76° East 445 512 21,000  Level FlightAware
08:05PM 45.0980 -73.7880 75° East 445 512 21,000  Level FlightAware
08:06PM 45.1200 -73.6620 76° East 444 511 21,000  Level FlightAware
08:07PM 45.1390 -73.5520 76° East 442 509 21,000  Level FlightAware
08:08PM 45.1610 -73.4240 76° East 442 509 21,000  Level FlightAware
08:08PM 45.1810 -73.3100 76° East 443 510 21,000  Level FlightAware
08:09PM 45.2020 -73.1850 77° East 443 510 21,000  Level FlightAware
08:10PM 45.2210 -73.0740 76° East 442 509 21,000  Level FlightAware
08:10PM 45.2410 -72.9590 76° East 440 506 21,000  Level FlightAware
08:11PM 45.2620 -72.8330 77° East 440 506 21,000  Level FlightAware
08:12PM 45.2810 -72.7200 77° East 439 505 21,000  Level FlightAware
08:12PM 45.2980 -72.5980 79° East 440 506 21,000  Level FlightAware
08:13PM 45.3070 -72.4740 84° East 440 506 21,000  Level FlightAware
08:14PM 45.3130 -72.3580 86° East 440 506 21,000  Level FlightAware
08:15PM 45.3210 -72.1930 86° East 444 511 21,000  Level FlightAware
08:15PM 45.3280 -72.0770 85° East 446 513 21,000  Level FlightAware
08:16PM 45.3340 -71.9520 86° East 448 516 21,000  Level FlightAware
08:17PM 45.3400 -71.8290 86° East 448 516 21,000  Level FlightAware
08:18PM 45.3470 -71.6900 86° East 450 518 21,000  Level FlightAware
08:18PM 45.3520 -71.5780 86° East 451 519 21,000  Level FlightAware
08:19PM 45.3590 -71.4290 86° East 451 519 21,000  Level FlightAware
08:20PM 45.3640 -71.3110 87° East 452 520 21,000  Level FlightAware
08:21PM 45.3700 -71.1950 86° East 452 520 21,000  Level FlightAware
08:21PM 45.3750 -71.0440 87° East 450 518 21,000  Level FlightAware
08:22PM 45.3710 -70.9270 93° East 452 520 21,000  Level FlightAware
08:23PM 45.3660 -70.8010 93° East 452 520 21,000  Level FlightAware
08:23PM 45.3370 -71.8970 268° West 21,000  Level FlightAware
08:24PM 45.3510 -70.5440 89° East 451 519 21,000  Level FlightAware
08:25PM 45.3450 -70.4480 95° East 450 518 21,000  Level FlightAware
08:25PM 45.3390 -70.3250 94° East 450 518 21,000  Level FlightAware
08:26PM 45.3280 -70.1400 95° East 450 518 21,000  Level FlightAware
08:27PM 45.3210 -70.0160 95° East 449 517 21,000  Level FlightAware
08:28PM 45.3140 -69.9060 95° East 449 517 21,000  Level FlightAware
08:29PM 45.3060 -69.7640 95° East 451 519 21,000  Level FlightAware
08:29PM 45.2980 -69.6440 95° East 451 519 21,000  Level FlightAware
08:30PM 45.2920 -69.5430 95° East 451 519 21,000  Level FlightAware
08:31PM 45.2820 -69.3810 95° East 450 518 21,000  Level FlightAware
08:31PM 45.2750 -69.2780 95° East 450 518 21,000  Level FlightAware
08:32PM 45.2660 -69.1390 95° East 451 519 21,000  Level FlightAware
08:33PM 45.2580 -69.0220 96° East 451 519 21,000  Level FlightAware
08:33PM 45.2490 -68.8900 95° East 453 521 21,000  Level FlightAware
08:34PM 45.2390 -68.7540 96° East 453 521 21,000  Level FlightAware
08:35PM 45.2310 -68.6350 95° East 454 522 21,000  Level FlightAware
08:36PM 45.2220 -68.5170 96° East 453 521 21,000  Level FlightAware
08:36PM 45.2140 -68.4040 96° East 452 520 21,000  Level FlightAware
08:37PM 45.2040 -68.2680 96° East 451 519 21,000  Level FlightAware
08:38PM 45.1940 -68.1380 96° East 449 517 21,000  Level FlightAware
08:38PM 45.1850 -68.0220 96° East 448 516 21,000  Level FlightAware
08:39PM 45.1770 -67.9090 96° East 447 514 21,000  Level FlightAware
08:40PM 45.1660 -67.7790 97° East 447 514 21,000  Level FlightAware
08:40PM 45.1570 -67.6590 96° East 446 513 21,000  Level FlightAware
08:41PM 45.1490 -67.5630 97° East 446 513 21,000  Level FlightAware
08:42PM 45.1370 -67.4140 96° East 445 512 21,000  Level FlightAware
08:43PM 45.1280 -67.2990 96° East 446 513 21,000  Level FlightAware
08:43PM 45.1170 -67.1670 97° East 445 512 21,000  Level FlightAware
08:44PM 45.1070 -67.0540 97° East 445 512 21,000  Level FlightAware
08:45PM 45.0960 -66.9250 97° East 444 511 21,000  Level FlightAware
08:45PM 45.0860 -66.8080 97° East 444 511 21,000  Level FlightAware
08:46PM 45.0750 -66.6930 98° East 445 512 21,000  Level FlightAware
08:47PM 45.0640 -66.5610 97° East 446 513 21,000  Level FlightAware
08:47PM 45.0530 -66.4460 98° East 447 514 21,000  Level FlightAware
08:48PM 45.0410 -66.3140 97° East 448 516 21,000  Level FlightAware
08:49PM 45.0310 -66.2000 97° East 449 517 21,000  Level FlightAware
08:50PM 45.0200 -66.0850 98° East 451 519 21,000  Level FlightAware
08:50PM 45.0070 -65.9510 98° East 452 520 21,000  Level FlightAware
08:51PM 44.9960 -65.8320 97° East 452 520 21,000  Level FlightAware
08:52PM 44.9840 -65.7130 98° East 452 520 21,000  Level FlightAware
08:52PM 44.9710 -65.5830 98° East 451 519 21,000  Level FlightAware
08:53PM 44.9600 -65.4670 98° East 451 519 21,000 -120 Level FlightAware
08:54PM 44.9470 -65.3350 98° East 445 512 20,900 -360 Descending FlightAware
08:54PM 44.9390 -65.2590 98° East 432 497 20,600 -1,020 Descending FlightAware
08:55PM 44.9250 -65.1110 98° East 413 475 19,600 -1,680 Descending FlightAware
08:56PM 44.9240 -64.9910 91° East 411 473 18,000 -1,740 Descending FlightAware
08:57PM 44.9240 -64.8850 90° East 392 451 17,200 -1,800 Descending FlightAware
08:57PM 44.9250 -64.7730 89° East 383 441 15,500 -2,640 Descending FlightAware
08:58PM 44.9260 -64.6740 89° East 387 445 13,500 -2,400 Descending FlightAware
08:59PM 44.9280 -64.5790 88° East 378 435 12,300 -1,380 Descending FlightAware
08:59PM 44.9410 -64.4670 81° East 347 399 11,600 -1,080 Descending FlightAware
09:00PM 44.9490 -64.3830 82° East 317 365 10,800 -1,500 Descending FlightAware
09:01PM 44.9540 -64.3240 83° East 309 356 9,900 -1,020 Descending FlightAware
09:01PM 44.9580 -64.2800 83° East 309 356 9,900  Level FlightAware
09:01PM 44.9630 -64.2280 82° East 309 356 9,900  Level FlightAware
09:02PM 44.9660 -64.1940 83° East 309 356 9,900  Level FlightAware
09:02PM 44.9700 -64.1430 84° East 309 356 9,900 -2,400 Level FlightAware
09:03PM 44.9667 -64.0167 84° East 290 334 7,000 -1,320 Descending Moncton Center
09:09PM 44.9400 -63.6100 84° East 117 135 1,600 -900 Descending FlightAware
09:09PM 44.9310 -63.5920 125° Southeast 110 127 1,500 -180 Descending FlightAware